createdAt,value
2023-08-23T00:03:29.186Z,103624.66
2023-08-23T00:07:32.161Z,103780.69
2023-08-23T00:11:36.519Z,103822.13
2023-08-23T00:15:43.252Z,104788.72
2023-08-23T00:19:47.324Z,104765.44
2023-08-23T00:23:50.228Z,104752.94
2023-08-23T00:28:11.503Z,104728.81
2023-08-23T00:32:16.611Z,104722.41
2023-08-23T00:36:19.607Z,104690.75
2023-08-23T00:40:22.600Z,104662.81
2023-08-23T00:44:26.871Z,104627.94
2023-08-23T00:48:29.999Z,104615.84
2023-08-23T00:52:39.573Z,104569.22
2023-08-23T00:56:51.225Z,104559.50
2023-08-23T01:00:55.689Z,104496.16
2023-08-23T01:04:58.612Z,104285.28
2023-08-23T01:09:05.538Z,104272.09
2023-08-23T01:13:11.414Z,104257.91
2023-08-23T01:17:18.033Z,104241.34
2023-08-23T01:21:25.236Z,104235.41
2023-08-23T01:25:29.618Z,104222.22
2023-08-23T01:29:32.577Z,104204.53
2023-08-23T01:33:37.043Z,104203.09
2023-08-23T01:37:40.890Z,104199.06
2023-08-23T01:41:45.365Z,104195.19
2023-08-23T01:45:48.363Z,104171.53
2023-08-23T01:49:51.353Z,104168.03
2023-08-23T01:53:54.291Z,104151.19
2023-08-23T01:57:59.086Z,104146.28
2023-08-23T02:02:02.072Z,104154.19
2023-08-23T02:06:05.110Z,104143.75
2023-08-23T02:10:08.820Z,104155.56
2023-08-23T02:14:13.075Z,104149.25
2023-08-23T02:18:17.811Z,104145.78
2023-08-23T02:22:21.099Z,104132.59
2023-08-23T02:26:24.020Z,104131.09
2023-08-23T02:30:28.397Z,104142.84
2023-08-23T02:34:31.376Z,104149.38
2023-08-23T02:38:34.316Z,104141.41
2023-08-23T02:42:37.239Z,104142.84
2023-08-23T02:46:41.727Z,104130.34
2023-08-23T02:50:45.473Z,104138.44
2023-08-23T02:54:48.411Z,104133.53
2023-08-23T02:58:51.352Z,104135.59
2023-08-23T03:02:55.657Z,104134.16
2023-08-23T03:06:58.575Z,104138.94
2023-08-23T03:11:03.421Z,104126.81
2023-08-23T03:15:07.076Z,104131.44
2023-08-23T03:19:11.495Z,104131.19
2023-08-23T03:23:14.508Z,104113.09
2023-08-23T03:27:20.125Z,104114.78
2023-08-23T03:31:23.858Z,104102.19
2023-08-23T03:35:30.205Z,104088.75
2023-08-23T03:39:33.190Z,104082.66
2023-08-23T03:43:36.076Z,104129.06
2023-08-23T03:47:38.995Z,104127.59
2023-08-23T03:51:43.298Z,104123.53
2023-08-23T03:55:46.323Z,104118.91
2023-08-23T03:59:49.252Z,104126.75
2023-08-23T04:03:52.305Z,104114.91
2023-08-23T04:07:56.709Z,104112.88
2023-08-23T04:12:00.008Z,104116.03
2023-08-23T04:16:02.952Z,104114.28
2023-08-23T04:20:08.226Z,104113.16
2023-08-23T04:24:12.789Z,104109.69
2023-08-23T04:28:15.776Z,104110.84
2023-08-23T04:32:19.503Z,104111.09
2023-08-23T04:36:22.446Z,104111.97
2023-08-23T04:40:26.722Z,104110.53
2023-08-23T04:44:31.835Z,104114.03
2023-08-23T04:48:35.099Z,104118.38
2023-08-23T04:52:37.999Z,104124.19
2023-08-23T04:56:42.305Z,104126.75
2023-08-23T05:00:47.104Z,104137.75
2023-08-23T05:04:50.220Z,104142.41
2023-08-23T05:08:53.174Z,104144.28
2023-08-23T05:13:01.926Z,104156.56
2023-08-23T05:17:05.142Z,104158.31
2023-08-23T05:21:09.827Z,104156.97
2023-08-23T05:25:12.864Z,104171.06
2023-08-23T05:29:17.152Z,104165.25
2023-08-23T05:33:20.150Z,104171.31
2023-08-23T05:37:23.274Z,104177.03
2023-08-23T05:41:26.642Z,104182.22
2023-08-23T05:45:31.436Z,104196.53
2023-08-23T05:49:34.350Z,104192.00
2023-08-23T05:53:37.251Z,104211.66
2023-08-23T05:57:40.254Z,104224.81
2023-08-23T06:01:44.574Z,104247.53
2023-08-23T06:05:47.499Z,104270.28
2023-08-23T06:09:50.423Z,104283.69
2023-08-23T06:13:53.368Z,104301.56
2023-08-23T06:17:58.163Z,104359.53
2023-08-23T06:22:01.324Z,104449.00
2023-08-23T06:26:04.850Z,104575.19
2023-08-23T06:30:08.826Z,104751.91
2023-08-23T06:34:13.163Z,104896.78
2023-08-23T06:38:17.162Z,104929.50
2023-08-23T06:42:20.097Z,104716.50
2023-08-23T06:46:23.137Z,104471.28
2023-08-23T06:50:27.633Z,103554.59
2023-08-23T06:54:30.668Z,103070.31
2023-08-23T06:58:33.858Z,102696.75
2023-08-23T07:02:36.932Z,102339.13
2023-08-23T07:06:41.325Z,101853.22
2023-08-23T07:10:45.370Z,101766.00
2023-08-23T07:14:51.349Z,101573.84
2023-08-23T07:18:54.412Z,101355.78
2023-08-23T07:22:58.734Z,101271.97
2023-08-23T07:27:01.677Z,101232.53
2023-08-23T07:31:04.712Z,101213.88
2023-08-23T07:35:08.786Z,101189.94
2023-08-23T07:39:13.076Z,101166.03
2023-08-23T07:43:16.181Z,101147.38
2023-08-23T07:47:19.085Z,101144.72
2023-08-23T07:51:22.093Z,101154.59
2023-08-23T07:55:26.358Z,101136.97
2023-08-23T07:59:29.305Z,101125.09
2023-08-23T08:03:32.299Z,101095.56
2023-08-23T08:08:06.574Z,101061.53
2023-08-23T08:11:59.468Z,101033.50
2023-08-23T08:16:07.539Z,101035.44
2023-08-23T08:20:13.377Z,101017.34
2023-08-23T08:24:16.594Z,101020.91
2023-08-23T08:28:20.857Z,101025.00
2023-08-23T08:32:23.897Z,101033.47
2023-08-23T08:36:26.828Z,101026.53
2023-08-23T08:40:30.596Z,101031.19
2023-08-23T08:44:34.867Z,101025.78
2023-08-23T08:48:37.796Z,101019.25
2023-08-23T08:52:42.559Z,101022.66
2023-08-23T08:56:47.676Z,101013.22
2023-08-23T09:00:54.203Z,101022.75
2023-08-23T09:04:57.562Z,101024.78
2023-08-23T09:09:00.896Z,101023.00
2023-08-23T09:13:04.351Z,101010.41
2023-08-23T09:17:09.858Z,101006.66
2023-08-23T09:21:13.679Z,101004.44
2023-08-23T09:25:16.661Z,101014.75
2023-08-23T09:29:20.123Z,101008.59
2023-08-23T09:33:25.026Z,100993.91
2023-08-23T09:37:29.269Z,101010.38
2023-08-23T09:41:32.536Z,101003.22
2023-08-23T09:45:36.008Z,101011.09
2023-08-23T09:49:42.478Z,101006.03
2023-08-23T09:53:49.530Z,101001.72
2023-08-23T09:57:53.762Z,101004.03
2023-08-23T10:01:57.502Z,101007.09
2023-08-23T10:06:02.040Z,100999.19
2023-08-23T10:10:07.546Z,101018.00
2023-08-23T10:14:11.376Z,101003.03
2023-08-23T10:18:15.812Z,101010.22
2023-08-23T10:22:20.371Z,101007.00
2023-08-23T10:26:24.281Z,101015.97
2023-08-23T10:30:27.920Z,101013.59
2023-08-23T10:34:31.028Z,101009.66
2023-08-23T10:38:36.021Z,100999.19
2023-08-23T10:42:38.958Z,100992.66
2023-08-23T10:46:45.994Z,100991.88
2023-08-23T10:50:49.347Z,100993.66
2023-08-23T10:54:53.967Z,100981.22
2023-08-23T10:58:56.862Z,100978.25
2023-08-23T11:03:01.625Z,100981.13
2023-08-23T11:07:04.885Z,100992.41
2023-08-23T11:11:09.198Z,100989.88
2023-08-23T11:15:12.526Z,100975.47
2023-08-23T11:19:15.494Z,100985.41
2023-08-23T11:23:18.411Z,100993.69
2023-08-23T11:27:22.707Z,100990.38
2023-08-23T11:31:25.734Z,100992.53
2023-08-23T11:35:29.063Z,100979.94
2023-08-23T11:39:31.987Z,100984.88
2023-08-23T11:43:36.365Z,100995.97
2023-08-23T11:47:39.321Z,100988.34
2023-08-23T11:51:45.326Z,100982.41
2023-08-23T11:55:50.374Z,100984.97
2023-08-23T11:59:55.141Z,100971.56
2023-08-23T12:03:58.198Z,100954.31
2023-08-23T12:08:01.508Z,100949.88
2023-08-23T12:12:04.868Z,100947.97
2023-08-23T12:16:09.321Z,100945.47
2023-08-23T12:20:12.669Z,100949.50
2023-08-23T12:24:15.616Z,100953.81
2023-08-23T12:28:19.063Z,100943.84
2023-08-23T12:32:23.413Z,100943.19
2023-08-23T12:36:27.133Z,100943.88
2023-08-23T12:40:30.098Z,100960.97
2023-08-23T12:44:34.283Z,100961.84
2023-08-23T12:48:38.662Z,100954.25
2023-08-23T12:52:41.638Z,100955.22
2023-08-23T12:56:44.788Z,100953.56
2023-08-23T13:00:47.756Z,100939.25
2023-08-23T13:04:52.207Z,100938.91
2023-08-23T13:08:55.117Z,100926.38
2023-08-23T13:12:58.059Z,100933.97
2023-08-23T13:17:01.046Z,100921.50
2023-08-23T13:21:07.960Z,100929.88
2023-08-23T13:25:11.625Z,100947.50
2023-08-23T13:29:14.555Z,100940.38
2023-08-23T13:33:17.515Z,100933.59
2023-08-23T13:37:21.824Z,100940.16
2023-08-23T13:41:25.545Z,100925.06
2023-08-23T13:45:28.710Z,100934.38
2023-08-23T13:49:31.733Z,100919.91
2023-08-23T13:53:36.027Z,100910.53
2023-08-23T13:57:39.011Z,100915.41
2023-08-23T14:01:42.259Z,100911.66
2023-08-23T14:05:45.248Z,100910.19
2023-08-23T14:09:49.536Z,100898.69
2023-08-23T14:13:52.813Z,100895.72
2023-08-23T14:17:55.936Z,100890.19
2023-08-23T14:21:58.915Z,100891.28
2023-08-23T14:26:05.266Z,100888.63
2023-08-23T14:30:09.335Z,100884.84
2023-08-23T14:34:12.532Z,100888.66
2023-08-23T14:38:15.620Z,100886.66
2023-08-23T14:42:19.895Z,100893.25
2023-08-23T14:46:23.007Z,100896.13
2023-08-23T14:50:27.128Z,100888.63
2023-08-23T14:54:30.249Z,100896.34
2023-08-23T14:58:34.634Z,100876.59
2023-08-23T15:02:37.849Z,100887.81
2023-08-23T15:06:40.768Z,100902.25
2023-08-23T15:10:44.013Z,100890.00
2023-08-23T15:14:48.286Z,100908.00
2023-08-23T15:18:51.314Z,100897.72
2023-08-23T15:22:54.315Z,100879.22
2023-08-23T15:26:57.250Z,100881.88
2023-08-23T15:31:04.304Z,100893.16
2023-08-23T15:35:07.750Z,100890.81
2023-08-23T15:39:10.751Z,100888.63
2023-08-23T15:43:13.678Z,100880.50
2023-08-23T15:47:19.055Z,100872.75
2023-08-23T15:51:22.208Z,100875.84
2023-08-23T15:55:26.800Z,100877.03
2023-08-23T15:59:30.453Z,100872.44
2023-08-23T16:03:34.769Z,100878.41
2023-08-23T16:07:37.862Z,100884.72
2023-08-23T16:11:40.751Z,100877.75
2023-08-23T16:15:43.866Z,100874.09
2023-08-23T16:19:48.206Z,100860.78
2023-08-23T16:23:51.132Z,100865.28
2023-08-23T16:27:54.166Z,100858.81
2023-08-23T16:31:57.359Z,100853.16
2023-08-23T16:36:01.672Z,100862.56
2023-08-23T16:40:04.904Z,100859.19
2023-08-23T16:44:07.927Z,100849.25
2023-08-23T16:48:11.089Z,100848.69
2023-08-23T16:52:15.802Z,100840.66
2023-08-23T16:56:18.806Z,100832.88
2023-08-23T17:00:22.004Z,100841.72
2023-08-23T17:04:24.986Z,100838.19
2023-08-23T17:08:29.271Z,100828.03
2023-08-23T17:12:32.207Z,100815.06
2023-08-23T17:16:36.192Z,100816.81
2023-08-23T17:20:39.234Z,100820.59
2023-08-23T17:24:43.681Z,100821.50
2023-08-23T17:28:46.793Z,100824.09
2023-08-23T17:32:49.909Z,100816.28
2023-08-23T17:36:53.685Z,100826.69
2023-08-23T17:40:57.994Z,100831.06
2023-08-23T17:45:04.594Z,100828.47
2023-08-23T17:49:08.251Z,100829.81
2023-08-23T17:53:11.270Z,100832.38
2023-08-23T17:57:15.509Z,100825.63
2023-08-23T18:01:21.308Z,100823.59
2023-08-23T18:05:24.512Z,100816.31
2023-08-23T18:09:27.623Z,100814.00
2023-08-23T18:13:32.055Z,100798.72
2023-08-23T18:17:35.072Z,100791.84
2023-08-23T18:21:38.342Z,100797.16
2023-08-23T18:25:41.913Z,100801.03
2023-08-23T18:29:46.218Z,100802.84
2023-08-23T18:33:49.221Z,100801.88
2023-08-23T18:37:52.441Z,100797.38
2023-08-23T18:41:55.361Z,100788.69
2023-08-23T18:45:59.691Z,100802.34
2023-08-23T18:50:02.933Z,100798.22
2023-08-23T18:54:06.292Z,100786.84
2023-08-23T18:58:09.186Z,100789.44
2023-08-23T19:02:13.458Z,100791.00
2023-08-23T19:06:16.394Z,100784.88
2023-08-23T19:10:19.527Z,100793.34
2023-08-23T19:14:22.578Z,100798.66
2023-08-23T19:18:27.105Z,100790.59
2023-08-23T19:22:30.153Z,100793.94
2023-08-23T19:26:33.278Z,100786.38
2023-08-23T19:30:36.233Z,100792.81
2023-08-23T19:34:40.569Z,100793.94
2023-08-23T19:38:43.495Z,100779.97
2023-08-23T19:42:46.497Z,100784.97
2023-08-23T19:46:49.504Z,100792.22
2023-08-23T19:50:53.830Z,100795.50
2023-08-23T19:54:56.969Z,100799.25
2023-08-23T19:59:00.104Z,100798.06
2023-08-23T20:03:03.352Z,100797.63
2023-08-23T20:07:07.792Z,100796.19
2023-08-23T20:11:10.788Z,100797.78
2023-08-23T20:15:13.999Z,100797.78
2023-08-23T20:19:16.908Z,100799.94
2023-08-23T20:23:21.461Z,100794.06
2023-08-23T20:27:24.630Z,100800.91
2023-08-23T20:31:27.836Z,100787.00
2023-08-23T20:35:31.008Z,100806.50
2023-08-23T20:39:36.001Z,100805.28
2023-08-23T20:43:39.282Z,100810.28
2023-08-23T20:47:42.242Z,100810.81
2023-08-23T20:51:45.220Z,100809.56
2023-08-23T20:55:50.911Z,100810.53
2023-08-23T20:59:54.219Z,100809.91
2023-08-23T21:03:57.163Z,100818.81
2023-08-23T21:08:00.277Z,100806.94
2023-08-23T21:12:05.772Z,100804.44
2023-08-23T21:16:08.710Z,100800.50
2023-08-23T21:20:11.973Z,100797.16
2023-08-23T21:24:14.885Z,100793.81
2023-08-23T21:28:19.170Z,100801.03
2023-08-23T21:32:22.117Z,100798.25
2023-08-23T21:36:25.169Z,100802.63
2023-08-23T21:40:28.091Z,100811.66
2023-08-23T21:44:32.431Z,100820.84
2023-08-23T21:48:35.584Z,100821.72
2023-08-23T21:52:38.515Z,100815.88
2023-08-23T21:56:41.454Z,100807.28
2023-08-23T22:00:45.760Z,100802.25
2023-08-23T22:04:48.802Z,100801.91
2023-08-23T22:08:51.800Z,100819.47
2023-08-23T22:12:54.663Z,100838.97
2023-08-23T22:16:59.081Z,100852.88
2023-08-23T22:21:05.757Z,100860.41
2023-08-23T22:25:09.087Z,100865.75
2023-08-23T22:29:12.076Z,100870.28
2023-08-23T22:33:16.357Z,100860.41
2023-08-23T22:37:19.284Z,100868.03
2023-08-23T22:41:22.183Z,100863.09
2023-08-23T22:45:25.247Z,100867.34
2023-08-23T22:49:30.609Z,100856.88
2023-08-23T22:53:33.523Z,100867.44
2023-08-23T22:57:36.529Z,100856.97
2023-08-23T23:01:39.537Z,100874.56
2023-08-23T23:05:43.818Z,100883.03
2023-08-23T23:09:46.882Z,100906.94
2023-08-23T23:13:49.890Z,100956.88
2023-08-23T23:17:53.044Z,100992.50
2023-08-23T23:21:57.536Z,100989.69
2023-08-23T23:26:00.425Z,101035.72
2023-08-23T23:30:03.446Z,101067.47
2023-08-23T23:34:06.701Z,101127.47
2023-08-23T23:38:11.003Z,101255.75
2023-08-23T23:42:13.994Z,101336.91
2023-08-23T23:46:18.541Z,101400.38
2023-08-23T23:50:21.628Z,101451.22
2023-08-23T23:54:25.846Z,101484.56
2023-08-23T23:58:28.860Z,101469.50
